Airfield :
LOGIN :

Register | Disclaimer

   EN    FR    IT 

 










Legend :    VFR   Marginal VFR   IFR   Intensive IFR   Very Intensive IFR
Visi :
Ceiling :
>= 8 km
>= 3000ft
5 to 8 km
1000 to 3000 ft
1500m to 5 km
500 to 1000 ft
800 to 1500m
200 to 500 ft
< 800m
< 200 ft
Symbols :   Thunderstorms  Fog  Heavy snow  Heavy precipitations  Wind > 20 kt
SIGMETs :     Misc.  Thunderstorms  Icing  Turbulence  Mountain Waves  Volcanic Ashes






- Airport Elevation : 289 ft


LFYR - Romorantin Pruniers

CURRENT METAR :
  • 230530Z AUTO VRB02KT 1600 BR FEW004 BKN052 BKN068 13/13 Q1012 TEMPO 22015G25KT TSRA BKN005 BKN030CB

EXPIRED METARs :
  • 230500Z AUTO 14001KT 6000 FEW005 BKN090 13/13 Q1012 TEMPO 22015G25KT 2900 TSRA BKN005 BKN030CB
  • 230430Z AUTO 09001KT 0600 FG FEW004 SCT066 BKN100 13/12 Q1012
  • 230400Z AUTO 00000KT 9999 ///CB 14/14 Q1012
  • 230330Z AUTO 20003KT 160V220 9999 -RA FEW006/// OVC072/// ///TCU 14/14 Q1012
  • 230300Z AUTO 18006KT 9999 SCT006/// BKN020/// BKN035/// ///TCU 15/14 Q1012

Expired Forecast.



MET'MAP, your aeronautical weather chart ! - Copyright ORBIFLY December 2007 - Disclaimer

ORBIFLY MET'MAP TEAM :

Programming & Development : Alexandra Zaïnal
Concept & original design : Baudouin d'Aumeries
Assistance for programming : Marc-Olivier Méhu
Technical & hardware support : Manuel Goepfert

Contact : metmap@orbifly.com




SOURCES & CREDITS :

   NOAA